»·PEaware :: PSV130 KSBA-KSFO

PSV130 :: KSBA-KSFO

FLIGHT INFORMATION

Flight Status: Arrived
Operator:
Power Set Virtual (website)
More flights by this operator :: More flights under this callsign
Pilot: Anonymous 24489 (24489)
Aircraft: BOEING 737-600
(B736)
More flights by this aircraft type
Origin: KSBA Santa Barbara Mun
United States
Destination: KSFO San Francisco Intl
United States
More flights between these airports :: More routes between these airports
Route: GAUCH2 MQO SERFR SERFR4
File this flight plan on PilotEdge
Remarks: RMK / SIMBRIEF
Altitude:
(Current/Filed)
26,000ft
Speed:
(Current/Filed)
443kts
Departed: 19-Oct-20 07:28 PM
Arrived: 19-Oct-20 08:13 PM
Distance/Time
Traveled:
228nm/0:45
Distance/Time
To Go:
Arrived

Flight Plot

Page will automatically refresh every two minutes.

Flight plan parsing failed; only flown route is shown


Map Options




Map Legend


Flown Route
Filed Route
Departure Airport
Arrival Airport
Navaid (VOR, NDB)
Fix

Horizontal Profiles

Position Reports

Time Latitude Longitude Heading Altitude Ground
Speed
19-Oct-20 19:08 34.426002 -119.837449 90 18ft 0kts
19-Oct-20 19:09 34.426002 -119.837449 90 18ft 0kts
19-Oct-20 19:10 34.426002 -119.837449 90 18ft 0kts
19-Oct-20 19:11 34.426002 -119.837449 90 18ft 0kts
19-Oct-20 19:12 34.426002 -119.837449 90 18ft 0kts
19-Oct-20 19:13 34.426002 -119.837449 90 18ft 0kts
19-Oct-20 19:14 34.426002 -119.837449 90 18ft 0kts
19-Oct-20 19:15 34.426002 -119.837449 90 18ft 0kts
19-Oct-20 19:16 34.426002 -119.837449 90 18ft 0kts
19-Oct-20 19:17 34.426002 -119.837449 90 18ft 0kts
19-Oct-20 19:18 34.425941 -119.838048 342 18ft 0kts
19-Oct-20 19:19 34.425941 -119.838048 342 18ft 0kts
19-Oct-20 19:20 34.425941 -119.838048 342 18ft 0kts
19-Oct-20 19:20 34.426680 -119.839400 269 18ft 17kts
19-Oct-20 19:22 34.426499 -119.846971 269 18ft 18kts
19-Oct-20 19:22 34.426378 -119.853124 267 18ft 21kts
19-Oct-20 19:24 34.426532 -119.854192 319 18ft 0kts
19-Oct-20 19:24 34.426532 -119.854192 319 18ft 0kts
19-Oct-20 19:25 34.426532 -119.854192 319 18ft 0kts
19-Oct-20 19:26 34.426607 -119.854269 319 18ft 9kts
19-Oct-20 19:27 34.428133 -119.825173 91 811ft 151kts
19-Oct-20 19:28 34.385927 -119.804134 155 2709ft 229kts
19-Oct-20 19:29 34.338619 -119.745549 141 4273ft 266kts
19-Oct-20 19:30 34.272515 -119.766721 247 7606ft 286kts
19-Oct-20 19:31 34.299552 -119.848820 325 10908ft 300kts
19-Oct-20 19:32 34.369712 -119.915263 321 13135ft 350kts
19-Oct-20 19:33 34.448219 -119.990063 320 16209ft 366kts
19-Oct-20 19:34 34.526381 -120.064344 320 18900ft 381kts
19-Oct-20 19:35 34.606363 -120.139927 320 21375ft 394kts
19-Oct-20 19:36 34.687153 -120.216596 320 23695ft 403kts
19-Oct-20 19:37 34.774821 -120.300167 319 25964ft 401kts
19-Oct-20 19:38 34.867164 -120.388475 320 26030ft 443kts
19-Oct-20 19:39 34.967227 -120.484464 320 26029ft 471kts
19-Oct-20 19:40 35.069839 -120.582906 320 26020ft 456kts
19-Oct-20 19:41 35.168543 -120.678398 320 26020ft 453kts
19-Oct-20 19:42 35.261518 -120.766799 324 26019ft 455kts
19-Oct-20 19:43 35.370340 -120.846915 328 26015ft 456kts
19-Oct-20 19:44 35.465998 -120.917001 328 26010ft 456kts
19-Oct-20 19:45 35.574473 -120.996961 328 25824ft 446kts
19-Oct-20 19:46 35.674502 -121.070822 328 24817ft 396kts
19-Oct-20 19:47 35.766412 -121.139070 327 24006ft 383kts
19-Oct-20 19:48 35.858615 -121.207494 328 23273ft 398kts
19-Oct-20 19:49 35.961399 -121.284420 328 22282ft 450kts
19-Oct-20 19:50 36.055987 -121.355385 328 21389ft 440kts
19-Oct-20 19:51 36.153091 -121.430720 327 20379ft 387kts
19-Oct-20 19:52 36.242231 -121.500279 328 20031ft 379kts
19-Oct-20 19:53 36.331688 -121.570224 327 20034ft 381kts
19-Oct-20 19:54 36.421425 -121.640887 327 20043ft 381kts
19-Oct-20 19:55 36.510876 -121.711409 328 19916ft 379kts
19-Oct-20 19:56 36.598671 -121.780665 327 18034ft 367kts
19-Oct-20 19:57 36.683320 -121.847916 327 15945ft 355kts
19-Oct-20 19:58 36.768900 -121.902492 344 14788ft 347kts
19-Oct-20 19:59 36.861875 -121.928273 347 12841ft 338kts
19-Oct-20 20:00 36.952599 -121.953205 346 10704ft 330kts
19-Oct-20 20:01 37.039142 -121.986523 341 8554ft 322kts
19-Oct-20 20:02 37.116543 -122.017159 342 8009ft 272kts
19-Oct-20 20:03 37.188428 -122.045381 342 8004ft 273kts
19-Oct-20 20:04 37.260956 -122.073848 342 7999ft 272kts
19-Oct-20 20:05 37.332388 -122.101963 342 7069ft 269kts
19-Oct-20 20:06 37.403018 -122.128732 344 5646ft 258kts
19-Oct-20 20:07 37.472369 -122.152166 343 3727ft 255kts
19-Oct-20 20:08 37.537262 -122.183202 307 3072ft 249kts
19-Oct-20 20:09 37.569641 -122.258089 297 1757ft 226kts
19-Oct-20 20:10 37.594924 -122.318306 299 728ft 155kts
19-Oct-20 20:11 37.611326 -122.357497 300 57ft 107kts
19-Oct-20 20:12 37.619232 -122.376348 296 21ft 22kts
19-Oct-20 20:13 37.619567 -122.379600 231 21ft 0kts
19-Oct-20 20:14 37.619441 -122.381799 295 21ft 9kts
19-Oct-20 20:15 37.619106 -122.380874 115 21ft 24kts
19-Oct-20 20:16 37.615752 -122.380631 270 21ft 5kts
19-Oct-20 20:17 37.616447 -122.380790 340 21ft 0kts
19-Oct-20 20:18 37.616447 -122.380790 340 21ft 0kts
19-Oct-20 20:19 37.616447 -122.380790 340 21ft 0kts
19-Oct-20 20:20 37.616447 -122.380790 340 21ft 0kts
19-Oct-20 20:21 37.616447 -122.380790 340 21ft 0kts
19-Oct-20 20:22 37.616447 -122.380790 340 21ft 0kts
19-Oct-20 20:23 37.616447 -122.380790 340 21ft 0kts
19-Oct-20 20:24 37.616447 -122.380790 340 21ft 0kts
19-Oct-20 20:25 37.616447 -122.380790 340 21ft 0kts
19-Oct-20 20:26 37.616447 -122.380790 340 21ft 0kts
19-Oct-20 20:27 37.616447 -122.380790 340 21ft 0kts

Navigation Log

Ident Type
Flight plan parsing failed, navigation log unavailable